createdAt,value
2016-12-04T01:50:48.412Z,1013.09
2016-12-04T02:51:38.270Z,1012.76
2016-12-04T03:39:45.928Z,1013.05
2016-12-04T03:43:19.976Z,1013.02
2016-12-04T05:16:19.632Z,1012.81
2016-12-04T05:50:02.809Z,1013.03
2016-12-04T05:54:22.518Z,1012.77
2016-12-04T05:55:36.688Z,1013.17
2016-12-04T06:18:38.189Z,1012.95
2016-12-04T06:21:40.546Z,1013.38
2016-12-04T06:30:47.047Z,1013.10
2016-12-04T06:40:46.262Z,1013.64
2016-12-04T06:47:00.301Z,1013.39
2016-12-04T06:49:49.061Z,1013.45
2016-12-04T06:50:11.786Z,1013.46
2016-12-04T06:50:34.504Z,1013.35
2016-12-04T06:50:56.228Z,1013.49
2016-12-04T06:51:17.983Z,1013.58
2016-12-04T06:51:44.474Z,1013.49
2016-12-04T06:52:32.693Z,1013.43
2016-12-04T06:53:00.199Z,1013.43
2016-12-04T06:58:57.742Z,1013.60
2016-12-04T06:59:24.241Z,1013.42
2016-12-04T07:01:47.828Z,1013.76
2016-12-04T07:02:15.412Z,1013.67
2016-12-04T07:02:54.877Z,1013.46
2016-12-04T07:03:59.022Z,1013.32
2016-12-04T07:04:21.753Z,1013.56
2016-12-04T07:04:53.017Z,1013.64
2016-12-04T07:05:20.648Z,1013.76
2016-12-04T07:06:22.989Z,1013.51
2016-12-04T07:06:55.259Z,1013.52
2016-12-04T07:07:53.868Z,1013.77
2016-12-04T07:09:23.419Z,1013.69
2016-12-04T07:09:45.153Z,1013.54
2016-12-04T07:10:39.388Z,1013.54
2016-12-04T07:11:01.120Z,1013.51
2016-12-04T07:11:30.104Z,1013.53
2016-12-04T07:15:21.673Z,1013.41
2016-12-04T07:16:34.211Z,1013.51
2016-12-04T07:16:55.945Z,1013.72
2016-12-04T07:17:31.975Z,1013.74
2016-12-04T07:18:01.422Z,1013.58
2016-12-04T07:18:27.918Z,1013.50
2016-12-04T07:18:52.582Z,1013.58
2016-12-04T07:19:19.111Z,1013.50
2016-12-04T07:20:40.794Z,1013.89
2016-12-04T07:21:46.079Z,1013.62
2016-12-04T07:23:12.572Z,1013.51
2016-12-04T07:23:34.296Z,1013.57
2016-12-04T07:24:23.520Z,1013.59
2016-12-04T07:24:46.255Z,1013.58
2016-12-04T07:25:12.781Z,1013.52
2016-12-04T07:25:39.290Z,1013.60
2016-12-04T07:26:03.984Z,1013.46
2016-12-04T07:26:25.717Z,1013.53
2016-12-04T07:26:56.997Z,1013.44
2016-12-04T07:27:18.753Z,1013.71
2016-12-04T07:28:47.597Z,1013.68
2016-12-04T07:29:09.327Z,1013.61
2016-12-04T07:29:57.559Z,1013.89
2016-12-04T07:30:19.309Z,1013.84
2016-12-04T07:30:41.076Z,1013.77
2016-12-04T07:31:02.875Z,1013.75
2016-12-04T07:31:56.453Z,1013.67
2016-12-04T07:32:18.208Z,1013.68
2016-12-04T07:33:21.775Z,1013.81
2016-12-04T07:33:48.274Z,1013.94
2016-12-04T07:34:10.034Z,1013.93
2016-12-04T07:34:31.777Z,1013.78
2016-12-04T07:34:53.511Z,1013.71
2016-12-04T07:35:49.605Z,1013.80
2016-12-04T07:36:13.892Z,1013.68
2016-12-04T07:36:45.183Z,1013.63
2016-12-04T07:37:14.184Z,1013.69
2016-12-04T07:37:40.326Z,1013.88
2016-12-04T07:38:02.230Z,1013.84
2016-12-04T07:38:39.072Z,1013.78
2016-12-04T07:39:11.349Z,1013.82
2016-12-04T07:39:48.011Z,1013.89
2016-12-04T07:40:09.746Z,1013.80
2016-12-04T07:40:31.464Z,1013.81
2016-12-04T07:40:53.259Z,1013.82
2016-12-04T07:41:14.988Z,1013.77
2016-12-04T07:42:15.563Z,1013.72
2016-12-04T07:42:47.825Z,1013.63
2016-12-04T07:43:15.310Z,1013.74
2016-12-04T07:43:43.078Z,1013.70
2016-12-04T07:44:10.572Z,1013.64
2016-12-04T07:44:41.978Z,1013.87
2016-12-04T07:45:08.466Z,1013.86
2016-12-04T07:45:30.213Z,1013.67
2016-12-04T07:46:01.289Z,1013.67
2016-12-04T07:46:30.402Z,1013.88
2016-12-04T07:49:15.784Z,1013.88
2016-12-04T07:51:19.365Z,1013.95
2016-12-04T07:51:44.135Z,1013.82
2016-12-04T07:53:58.821Z,1013.69
2016-12-04T07:55:04.139Z,1013.72
2016-12-04T07:56:07.526Z,1013.84
2016-12-04T07:57:02.440Z,1013.87
2016-12-04T07:58:04.981Z,1013.72
2016-12-04T08:01:18.267Z,1013.88
2016-12-04T08:01:54.300Z,1013.81
2016-12-04T08:02:33.526Z,1013.67
2016-12-04T08:03:02.375Z,1013.59
2016-12-04T08:03:40.814Z,1013.83
2016-12-04T08:05:20.014Z,1013.77
2016-12-04T08:06:43.910Z,1013.40
2016-12-04T08:07:10.420Z,1013.65
2016-12-04T08:08:04.417Z,1013.82
2016-12-04T08:08:30.940Z,1013.67
2016-12-04T08:08:57.436Z,1013.61
2016-12-04T08:09:19.168Z,1013.64
2016-12-04T08:09:45.670Z,1013.76
2016-12-04T08:10:08.441Z,1013.79
2016-12-04T08:10:37.947Z,1013.66
2016-12-04T08:10:59.684Z,1013.63
2016-12-04T08:11:21.416Z,1013.69
2016-12-04T08:11:43.175Z,1013.72
2016-12-04T08:12:59.655Z,1013.68
2016-12-04T08:13:33.756Z,1013.56
2016-12-04T08:14:06.148Z,1013.69
2016-12-04T08:14:56.366Z,1013.83
2016-12-04T08:15:44.537Z,1013.65
2016-12-04T08:16:07.270Z,1013.71
2016-12-04T08:16:28.992Z,1013.74
2016-12-04T08:16:53.515Z,1013.77
2016-12-04T08:17:15.261Z,1013.90
2016-12-04T08:17:41.783Z,1013.89
2016-12-04T08:18:08.283Z,1013.73
2016-12-04T08:18:30.014Z,1013.82
2016-12-04T08:18:56.526Z,1013.80
2016-12-04T08:19:18.257Z,1013.74
2016-12-04T08:19:40.005Z,1013.72
2016-12-04T08:20:01.748Z,1013.80
2016-12-04T08:20:23.483Z,1013.79
2016-12-04T08:20:46.201Z,1013.85
2016-12-04T08:21:07.916Z,1013.74
2016-12-04T08:21:30.644Z,1013.88
2016-12-04T08:21:52.380Z,1013.73
2016-12-04T08:22:14.110Z,1013.73
2016-12-04T08:22:35.826Z,1013.80
2016-12-04T08:22:57.565Z,1013.85
2016-12-04T08:23:24.172Z,1013.84
2016-12-04T08:23:45.888Z,1013.78
2016-12-04T08:24:07.625Z,1013.81
2016-12-04T08:24:29.346Z,1013.78
2016-12-04T08:25:17.561Z,1013.80
2016-12-04T08:25:39.326Z,1013.75
2016-12-04T08:28:24.461Z,1013.82
2016-12-04T08:31:34.028Z,1013.88
2016-12-04T08:32:08.826Z,1013.81
2016-12-04T08:33:21.493Z,1013.85
2016-12-04T08:33:45.884Z,1013.87
2016-12-04T08:34:36.150Z,1013.85
2016-12-04T08:37:26.387Z,1013.92
2016-12-04T08:37:49.087Z,1013.83
2016-12-04T08:39:18.978Z,1013.84
2016-12-04T08:39:43.332Z,1013.85
2016-12-04T08:40:05.065Z,1013.92
2016-12-04T08:40:27.775Z,1013.85
2016-12-04T08:40:49.514Z,1013.84
2016-12-04T08:41:11.252Z,1013.85
2016-12-04T08:42:18.300Z,1013.87
2016-12-04T08:42:40.033Z,1013.94
2016-12-04T08:43:02.782Z,1013.82
2016-12-04T08:43:24.507Z,1013.74
2016-12-04T08:43:51.009Z,1013.90
2016-12-04T08:44:12.730Z,1013.89
2016-12-04T08:44:39.036Z,1013.88
2016-12-04T08:45:03.708Z,1013.87
2016-12-04T08:45:30.205Z,1013.87
2016-12-04T08:45:56.691Z,1013.86
2016-12-04T08:46:23.177Z,1013.83
2016-12-04T08:46:44.907Z,1013.80
2016-12-04T08:47:11.418Z,1013.81
2016-12-04T08:47:40.440Z,1013.83
2016-12-04T08:48:42.154Z,1013.83
2016-12-04T08:49:06.497Z,1013.80
2016-12-04T08:49:33.013Z,1013.73
2016-12-04T08:49:54.735Z,1013.87
2016-12-04T08:50:16.466Z,1013.83
2016-12-04T08:50:42.972Z,1013.91
2016-12-04T08:51:04.697Z,1013.94
2016-12-04T08:51:26.415Z,1013.83
2016-12-04T08:51:48.143Z,1013.91
2016-12-04T08:52:09.892Z,1013.98
2016-12-04T08:52:36.391Z,1013.80
2016-12-04T08:52:58.102Z,1013.88
2016-12-04T08:53:19.870Z,1013.90
2016-12-04T08:53:41.703Z,1013.87
2016-12-04T08:54:03.445Z,1013.82
2016-12-04T08:54:25.185Z,1013.79
2016-12-04T08:54:46.911Z,1013.83
2016-12-04T08:55:11.351Z,1013.84
2016-12-04T08:55:47.217Z,1013.75
2016-12-04T08:56:09.957Z,1013.84
2016-12-04T08:56:35.409Z,1013.78
2016-12-04T08:57:02.268Z,1013.84
2016-12-04T08:57:23.988Z,1013.84
2016-12-04T08:57:53.133Z,1013.89
2016-12-04T08:58:15.882Z,1013.87
2016-12-04T08:58:37.595Z,1013.80
2016-12-04T08:58:59.322Z,1013.80
2016-12-04T08:59:25.810Z,1013.83
2016-12-04T09:00:19.799Z,1013.89
2016-12-04T09:00:41.535Z,1013.93
2016-12-04T09:01:03.253Z,1013.89
2016-12-04T09:01:51.485Z,1013.98
2016-12-04T09:02:17.991Z,1013.91
2016-12-04T09:02:49.076Z,1013.91
2016-12-04T09:03:47.825Z,1013.90
2016-12-04T09:04:43.663Z,1013.86
2016-12-04T09:05:06.388Z,1013.86
2016-12-04T09:05:33.726Z,1013.81
2016-12-04T09:05:55.462Z,1013.89
2016-12-04T09:06:17.190Z,1013.91
2016-12-04T09:06:43.503Z,1013.85
2016-12-04T09:07:15.792Z,1013.92
2016-12-04T09:08:14.487Z,1013.89
2016-12-04T09:09:07.313Z,1013.99
2016-12-04T09:09:29.047Z,1013.92
2016-12-04T09:11:00.670Z,1013.98
2016-12-04T09:11:31.802Z,1014.02
2016-12-04T09:11:58.102Z,1013.90
2016-12-04T09:12:29.396Z,1013.95
2016-12-04T09:12:53.120Z,1014.01
2016-12-04T09:14:11.930Z,1013.86
2016-12-04T09:17:10.497Z,1013.94
2016-12-04T09:17:49.901Z,1013.86
2016-12-04T09:19:34.605Z,1013.94
2016-12-04T09:20:23.132Z,1013.95
2016-12-04T09:20:55.439Z,1013.95
2016-12-04T09:21:36.238Z,1014.03
2016-12-04T09:22:11.651Z,1014.01
2016-12-04T09:23:06.964Z,1014.00
2016-12-04T09:24:42.434Z,1013.99
2016-12-04T09:25:11.589Z,1014.03
2016-12-04T09:25:35.893Z,1014.05
2016-12-04T09:28:41.865Z,1014.13
2016-12-04T09:29:44.213Z,1014.03
2016-12-04T09:32:22.502Z,1014.05
2016-12-04T09:32:49.012Z,1014.06
2016-12-04T09:33:11.725Z,1014.06
2016-12-04T09:33:33.448Z,1014.05
2016-12-04T09:33:55.176Z,1014.04
2016-12-04T09:34:16.982Z,1014.06
2016-12-04T09:35:05.230Z,1013.99
2016-12-04T09:35:26.977Z,1014.06
2016-12-04T09:35:50.693Z,1014.09
2016-12-04T09:36:12.410Z,1014.06
2016-12-04T09:36:36.897Z,1014.06
2016-12-04T09:36:58.618Z,1014.08
2016-12-04T09:37:20.337Z,1014.06
2016-12-04T09:37:42.069Z,1014.10
2016-12-04T09:38:03.788Z,1014.17
2016-12-04T09:38:26.510Z,1014.08
2016-12-04T09:38:48.231Z,1014.03
2016-12-04T09:39:09.965Z,1014.08
2016-12-04T09:39:31.703Z,1013.99
2016-12-04T09:39:53.487Z,1013.96
2016-12-04T09:40:16.240Z,1014.03
2016-12-04T09:40:40.999Z,1013.93
2016-12-04T09:41:02.610Z,1013.96
2016-12-04T09:41:24.360Z,1014.02
2016-12-04T09:41:51.854Z,1014.02
2016-12-04T09:42:13.626Z,1014.02
2016-12-04T09:42:35.369Z,1014.02
2016-12-04T09:42:57.097Z,1014.02
2016-12-04T09:46:03.132Z,1014.07
2016-12-04T09:46:32.285Z,1014.01
2016-12-04T09:46:58.825Z,1014.04
2016-12-04T09:47:33.984Z,1014.11
2016-12-04T09:48:00.497Z,1014.00
2016-12-04T09:48:27.079Z,1013.95
2016-12-04T09:48:51.631Z,1013.97
2016-12-04T09:49:48.239Z,1014.11
2016-12-04T09:50:11.364Z,1014.07
2016-12-04T09:50:33.096Z,1013.98
2016-12-04T09:50:59.594Z,1014.02
2016-12-04T09:51:26.102Z,1014.06
2016-12-04T09:52:20.348Z,1014.09
2016-12-04T09:52:47.151Z,1013.97
2016-12-04T09:54:02.893Z,1013.96
2016-12-04T09:54:55.866Z,1014.12
2016-12-04T09:55:20.227Z,1014.13
2016-12-04T09:55:50.118Z,1014.19
2016-12-04T09:56:13.288Z,1014.17
2016-12-04T09:56:37.271Z,1014.12
2016-12-04T09:56:59.314Z,1014.19
2016-12-04T09:57:28.697Z,1014.09
2016-12-04T09:57:50.421Z,1013.95
2016-12-04T09:58:13.123Z,1013.98
2016-12-04T09:58:34.899Z,1013.99
2016-12-04T09:58:56.643Z,1014.22
2016-12-04T09:59:18.369Z,1014.05
2016-12-04T09:59:40.088Z,1014.10
2016-12-04T10:00:01.850Z,1014.10
2016-12-04T10:00:23.622Z,1014.08
2016-12-04T10:00:46.355Z,1014.20
2016-12-04T10:01:08.091Z,1014.15
2016-12-04T10:01:29.821Z,1014.06
2016-12-04T10:01:51.567Z,1013.97
2016-12-04T10:02:13.286Z,1013.96
2016-12-04T10:02:35.023Z,1014.03
2016-12-04T10:02:56.745Z,1014.19
2016-12-04T10:03:18.472Z,1014.13
2016-12-04T10:03:40.192Z,1014.02
2016-12-04T10:04:06.678Z,1014.00
2016-12-04T10:04:33.175Z,1013.90
2016-12-04T10:05:26.825Z,1014.08
2016-12-04T10:05:48.543Z,1014.01
2016-12-04T10:06:15.042Z,1014.01
2016-12-04T10:06:42.955Z,1013.97
2016-12-04T10:07:09.633Z,1013.98
2016-12-04T10:08:17.104Z,1014.01
2016-12-04T10:08:49.356Z,1014.01
2016-12-04T10:09:15.873Z,1014.11
2016-12-04T10:09:37.610Z,1014.07
2016-12-04T10:09:59.328Z,1014.02
2016-12-04T10:10:21.074Z,1013.94
2016-12-04T10:10:42.868Z,1014.03
2016-12-04T10:11:04.622Z,1014.03
2016-12-04T10:12:07.277Z,1013.81
2016-12-04T10:12:29.008Z,1013.97
2016-12-04T10:13:45.657Z,1013.99
2016-12-04T10:14:16.926Z,1013.99
2016-12-04T10:15:09.923Z,1014.07
2016-12-04T10:15:31.674Z,1014.05
2016-12-04T10:15:53.396Z,1014.11
2016-12-04T10:16:15.124Z,1013.99
2016-12-04T10:16:36.854Z,1013.88
2016-12-04T10:16:58.638Z,1013.87
2016-12-04T10:17:25.153Z,1013.95
2016-12-04T10:17:57.931Z,1014.04
2016-12-04T10:18:24.417Z,1014.02
2016-12-04T10:19:12.627Z,1013.98
2016-12-04T10:19:34.364Z,1014.05
2016-12-04T10:19:57.092Z,1014.01
2016-12-04T10:20:18.848Z,1013.98
2016-12-04T10:20:40.597Z,1013.96
2016-12-04T10:21:02.322Z,1013.98
2016-12-04T10:21:24.053Z,1014.02
2016-12-04T10:21:45.780Z,1013.96
2016-12-04T10:22:07.503Z,1013.97
2016-12-04T10:22:30.234Z,1013.95
2016-12-04T10:22:51.987Z,1013.82
2016-12-04T10:23:13.702Z,1013.84
2016-12-04T10:23:35.548Z,1013.87
2016-12-04T10:23:57.275Z,1013.89
2016-12-04T10:24:19.006Z,1013.93
2016-12-04T10:24:40.726Z,1013.95
2016-12-04T10:25:02.456Z,1013.91
2016-12-04T10:25:24.189Z,1014.07
2016-12-04T10:25:45.918Z,1013.96
2016-12-04T10:26:07.651Z,1013.92
2016-12-04T10:26:30.372Z,1013.78
2016-12-04T10:26:52.087Z,1013.95
2016-12-04T10:27:13.839Z,1013.81
2016-12-04T10:27:35.566Z,1013.85
2016-12-04T10:27:57.400Z,1013.84
2016-12-04T10:28:19.133Z,1013.82
2016-12-04T10:28:40.859Z,1013.84
2016-12-04T10:29:02.585Z,1013.82
2016-12-04T10:29:24.325Z,1013.95
2016-12-04T10:29:46.043Z,1013.77
2016-12-04T10:30:07.795Z,1013.72
2016-12-04T10:30:29.579Z,1013.81
2016-12-04T10:30:51.306Z,1013.89
2016-12-04T10:31:13.031Z,1014.00
2016-12-04T10:31:34.759Z,1013.88
2016-12-04T10:32:07.022Z,1013.81
2016-12-04T10:32:28.742Z,1013.81
2016-12-04T10:32:50.477Z,1013.72
2016-12-04T10:33:16.973Z,1013.76
2016-12-04T10:33:38.715Z,1013.78
2016-12-04T10:34:00.452Z,1013.75
2016-12-04T10:34:22.190Z,1013.76
2016-12-04T10:34:44.907Z,1013.61
2016-12-04T10:35:06.642Z,1013.65
2016-12-04T10:36:00.642Z,1013.77
2016-12-04T10:36:22.360Z,1013.79
2016-12-04T10:36:44.108Z,1013.96
2016-12-04T10:37:05.828Z,1013.69
2016-12-04T10:37:27.573Z,1013.68
2016-12-04T10:37:50.301Z,1013.95
2016-12-04T10:38:16.648Z,1013.72
2016-12-04T10:38:39.381Z,1013.68
2016-12-04T10:39:01.132Z,1013.64
2016-12-04T10:39:28.631Z,1013.56
2016-12-04T10:39:55.150Z,1013.78
2016-12-04T10:40:16.939Z,1013.78
2016-12-04T10:40:38.679Z,1013.66
2016-12-04T10:42:09.456Z,1013.82
2016-12-04T10:42:31.187Z,1013.69
2016-12-04T10:42:58.511Z,1013.59
2016-12-04T10:43:20.280Z,1013.55
2016-12-04T10:43:43.096Z,1013.70
2016-12-04T10:44:04.830Z,1013.70
2016-12-04T10:44:29.527Z,1013.63
2016-12-04T10:44:51.370Z,1013.79
2016-12-04T10:45:44.550Z,1013.87
2016-12-04T10:46:09.275Z,1013.61
2016-12-04T10:46:36.762Z,1013.66
2016-12-04T10:46:59.495Z,1013.66
2016-12-04T10:47:22.216Z,1013.59
2016-12-04T10:47:43.983Z,1013.72
2016-12-04T10:48:05.736Z,1013.71
2016-12-04T10:48:32.229Z,1013.60
2016-12-04T10:48:53.948Z,1013.70
2016-12-04T10:49:15.689Z,1013.62
2016-12-04T10:49:37.434Z,1013.54
2016-12-04T10:49:59.186Z,1013.51
2016-12-04T10:50:26.681Z,1013.64
2016-12-04T10:50:49.412Z,1013.61
2016-12-04T10:51:11.146Z,1013.60
2016-12-04T10:51:32.894Z,1013.67
2016-12-04T10:51:54.658Z,1013.46
2016-12-04T10:52:16.388Z,1013.74
2016-12-04T10:52:39.137Z,1013.70
2016-12-04T10:53:00.848Z,1013.80
2016-12-04T10:53:23.576Z,1013.57
2016-12-04T10:53:47.969Z,1013.66
2016-12-04T10:54:09.845Z,1013.95
2016-12-04T10:54:31.565Z,1013.70
2016-12-04T10:54:53.285Z,1013.58
2016-12-04T10:55:15.003Z,1013.51
2016-12-04T10:55:36.722Z,1013.58
2016-12-04T10:55:58.467Z,1013.54
2016-12-04T10:56:20.195Z,1013.56
2016-12-04T10:56:41.939Z,1013.68
2016-12-04T10:57:03.669Z,1013.90
2016-12-04T10:57:25.400Z,1013.85
2016-12-04T10:57:47.128Z,1014.07
2016-12-04T10:58:13.627Z,1013.56
2016-12-04T10:58:35.335Z,1013.69
2016-12-04T10:58:57.064Z,1013.57
2016-12-04T10:59:18.793Z,1013.70
2016-12-04T10:59:40.547Z,1013.81
2016-12-04T11:00:02.379Z,1013.57
2016-12-04T11:00:24.098Z,1013.57
2016-12-04T11:00:45.813Z,1013.59
2016-12-04T11:01:07.567Z,1013.86
2016-12-04T11:01:29.321Z,1013.76
2016-12-04T11:01:51.053Z,1013.77
2016-12-04T11:02:12.791Z,1013.83
2016-12-04T11:02:34.543Z,1013.59
2016-12-04T11:02:57.295Z,1013.62
2016-12-04T11:03:19.011Z,1013.53
2016-12-04T11:03:40.735Z,1013.45
2016-12-04T11:04:02.475Z,1013.51
2016-12-04T11:04:25.285Z,1013.68
2016-12-04T11:04:51.781Z,1013.42
2016-12-04T11:05:16.250Z,1013.71
2016-12-04T11:05:37.842Z,1013.54
2016-12-04T11:05:59.556Z,1013.59
2016-12-04T11:06:21.299Z,1013.67
2016-12-04T11:06:43.009Z,1013.60
2016-12-04T11:07:05.827Z,1013.63
2016-12-04T11:07:27.545Z,1013.69
2016-12-04T11:07:49.254Z,1013.71
2016-12-04T11:08:37.496Z,1013.80
2016-12-04T11:08:59.231Z,1013.58
2016-12-04T11:09:21.019Z,1013.46
2016-12-04T11:10:19.833Z,1013.58
2016-12-04T11:10:41.553Z,1013.91
2016-12-04T11:11:03.267Z,1013.55
2016-12-04T11:11:24.975Z,1013.46
2016-12-04T11:11:46.737Z,1013.80
2016-12-04T11:12:08.491Z,1013.65
2016-12-04T11:12:34.986Z,1013.54
2016-12-04T11:12:56.711Z,1013.58
2016-12-04T11:13:18.442Z,1013.92
2016-12-04T11:13:40.157Z,1013.86
2016-12-04T11:14:01.873Z,1013.61
2016-12-04T11:14:23.624Z,1013.59
2016-12-04T11:14:46.345Z,1013.72
2016-12-04T11:15:08.085Z,1013.82
2016-12-04T11:15:29.827Z,1013.66
2016-12-04T11:15:51.542Z,1013.49
2016-12-04T11:16:13.261Z,1013.62
2016-12-04T11:16:34.982Z,1013.79
2016-12-04T11:16:56.707Z,1013.67
2016-12-04T11:17:18.437Z,1013.60
2016-12-04T11:17:40.173Z,1013.64
2016-12-04T11:18:01.897Z,1013.89
2016-12-04T11:18:23.607Z,1013.71
2016-12-04T11:18:45.332Z,1013.85
2016-12-04T11:19:07.078Z,1013.63
2016-12-04T11:19:28.808Z,1013.70
2016-12-04T11:20:17.201Z,1013.56
2016-12-04T11:20:39.918Z,1013.60
2016-12-04T11:21:01.629Z,1013.47
2016-12-04T11:21:23.341Z,1013.42
2016-12-04T11:21:45.073Z,1013.35
2016-12-04T11:22:33.337Z,1013.52
2016-12-04T11:22:55.056Z,1013.59
2016-12-04T11:23:16.779Z,1013.67
2016-12-04T11:23:38.506Z,1013.63
2016-12-04T11:24:00.219Z,1013.55
2016-12-04T11:24:21.941Z,1013.60
2016-12-04T11:24:46.509Z,1013.74
2016-12-04T11:25:08.234Z,1013.79
2016-12-04T11:25:29.966Z,1013.52
2016-12-04T11:25:51.681Z,1013.58
2016-12-04T11:26:18.170Z,1013.59
2016-12-04T11:26:39.891Z,1013.52
2016-12-04T11:27:01.624Z,1013.34
2016-12-04T11:27:23.352Z,1013.44
2016-12-04T11:27:45.069Z,1013.56
2016-12-04T11:28:06.802Z,1013.77
2016-12-04T11:28:33.293Z,1013.71
2016-12-04T11:28:55.032Z,1013.72
2016-12-04T11:29:16.843Z,1013.63
2016-12-04T11:29:38.736Z,1013.44
2016-12-04T11:30:00.445Z,1013.57
2016-12-04T11:30:22.168Z,1013.59
2016-12-04T11:30:44.920Z,1013.52
2016-12-04T11:31:06.671Z,1013.54
2016-12-04T11:31:29.413Z,1013.53
2016-12-04T11:31:51.136Z,1013.55
2016-12-04T11:32:12.849Z,1013.51
2016-12-04T11:32:34.565Z,1013.29
2016-12-04T11:32:56.284Z,1013.44
2016-12-04T11:33:18.023Z,1013.48
2016-12-04T11:33:39.743Z,1013.48
2016-12-04T11:34:06.263Z,1013.88
2016-12-04T11:34:28.988Z,1013.78
2016-12-04T11:34:50.699Z,1013.75
2016-12-04T11:35:12.425Z,1013.78
2016-12-04T11:35:38.731Z,1013.34
2016-12-04T11:36:00.471Z,1013.24
2016-12-04T11:36:26.876Z,1013.52
2016-12-04T11:36:48.588Z,1013.59
2016-12-04T11:37:10.345Z,1013.59
2016-12-04T11:37:32.073Z,1013.31
2016-12-04T11:37:53.818Z,1013.68
2016-12-04T11:38:15.538Z,1014.11
2016-12-04T11:38:42.052Z,1013.72
2016-12-04T11:39:48.077Z,1013.56
2016-12-04T11:40:12.455Z,1013.53
2016-12-04T11:40:38.948Z,1013.39
2016-12-04T11:42:47.575Z,1013.36
2016-12-04T11:45:09.016Z,1013.66
2016-12-04T11:45:35.353Z,1013.29
2016-12-04T11:47:45.113Z,1013.21
2016-12-04T11:48:09.856Z,1013.58
2016-12-04T11:49:55.174Z,1013.28
2016-12-04T11:50:22.669Z,1013.33
2016-12-04T11:50:53.753Z,1013.61
2016-12-04T11:52:36.679Z,1013.07
2016-12-04T11:52:58.459Z,1013.41
2016-12-04T11:53:20.178Z,1013.35
2016-12-04T11:53:46.679Z,1013.38
2016-12-04T11:54:17.951Z,1013.77
2016-12-04T11:54:45.438Z,1013.17
2016-12-04T11:55:37.266Z,1013.66
2016-12-04T11:56:06.688Z,1013.77
2016-12-04T11:56:58.658Z,1013.31
2016-12-04T11:57:29.933Z,1013.03
2016-12-04T11:58:31.264Z,1013.37
2016-12-04T11:59:30.027Z,1013.45
2016-12-04T11:59:56.539Z,1013.56
2016-12-04T12:00:20.992Z,1013.14
2016-12-04T12:00:50.038Z,1012.87
2016-12-04T12:01:11.781Z,1013.26
2016-12-04T12:01:39.264Z,1013.45
2016-12-04T12:02:10.537Z,1013.39
2016-12-04T12:02:35.775Z,1013.40
2016-12-04T12:03:00.092Z,1013.25
2016-12-04T12:03:21.837Z,1013.30
2016-12-04T12:03:43.606Z,1013.17
2016-12-04T12:04:36.579Z,1013.27
2016-12-04T12:04:58.297Z,1013.31
2016-12-04T12:05:20.151Z,1013.29
2016-12-04T12:05:47.990Z,1013.14
2016-12-04T12:06:09.722Z,1013.11
2016-12-04T12:06:36.220Z,1012.96
2016-12-04T12:06:57.954Z,1013.04
2016-12-04T12:07:19.689Z,1013.24
2016-12-04T12:07:55.726Z,1013.52
2016-12-04T12:08:17.455Z,1013.20
2016-12-04T12:08:40.188Z,1013.53
2016-12-04T12:09:02.936Z,1012.98
2016-12-04T12:09:25.676Z,1013.39
2016-12-04T12:09:47.393Z,1013.13
2016-12-04T12:10:10.146Z,1012.93
2016-12-04T12:10:32.871Z,1013.02
2016-12-04T12:11:30.635Z,1013.35
2016-12-04T12:11:52.366Z,1013.09
2016-12-04T12:12:14.094Z,1013.21
2016-12-04T12:12:35.855Z,1013.22
2016-12-04T12:12:57.573Z,1013.15
2016-12-04T12:13:20.301Z,1013.17
2016-12-04T12:14:08.579Z,1012.92
2016-12-04T12:14:30.299Z,1013.56
2016-12-04T12:14:52.037Z,1012.98
2016-12-04T12:15:14.774Z,1013.17
2016-12-04T12:15:36.543Z,1013.05
2016-12-04T12:15:58.290Z,1013.02
2016-12-04T12:16:20.004Z,1013.18
2016-12-04T12:16:41.726Z,1012.92
2016-12-04T12:17:03.465Z,1013.28
2016-12-04T12:17:25.212Z,1013.17
2016-12-04T12:17:46.948Z,1013.76
2016-12-04T12:18:44.752Z,1012.98
2016-12-04T12:19:06.610Z,1013.01
2016-12-04T12:19:33.091Z,1012.94
2016-12-04T12:19:54.811Z,1013.23
2016-12-04T12:20:21.304Z,1013.20
2016-12-04T12:20:43.024Z,1013.18
2016-12-04T12:21:07.243Z,1013.12
2016-12-04T12:21:29.973Z,1013.21
2016-12-04T12:21:51.703Z,1013.06
2016-12-04T12:22:13.442Z,1013.19
2016-12-04T12:22:35.164Z,1013.02
2016-12-04T12:22:56.904Z,1013.05
2016-12-04T12:23:18.660Z,1013.40
2016-12-04T12:23:40.410Z,1013.33
2016-12-04T12:24:02.131Z,1013.44
2016-12-04T12:24:23.851Z,1013.12
2016-12-04T12:24:45.590Z,1013.03
2016-12-04T12:25:09.298Z,1013.47
2016-12-04T12:25:40.587Z,1013.27
2016-12-04T12:26:03.317Z,1013.10
2016-12-04T12:26:25.047Z,1013.01
2016-12-04T12:26:51.540Z,1012.85
2016-12-04T12:27:13.286Z,1013.21
2016-12-04T12:27:35.006Z,1013.23
2016-12-04T12:27:56.730Z,1013.20
2016-12-04T12:28:21.038Z,1013.39
2016-12-04T12:28:47.532Z,1013.05
2016-12-04T12:29:09.288Z,1013.19
2016-12-04T12:29:31.007Z,1013.64
2016-12-04T12:29:53.754Z,1013.08
2016-12-04T12:30:15.501Z,1013.05
2016-12-04T12:30:37.232Z,1012.84
2016-12-04T12:30:58.963Z,1012.90
2016-12-04T12:31:20.704Z,1012.97
2016-12-04T12:31:42.431Z,1013.12
2016-12-04T12:32:30.649Z,1013.07
2016-12-04T12:32:52.388Z,1013.24
2016-12-04T12:33:14.117Z,1013.31
2016-12-04T12:33:35.846Z,1013.46
2016-12-04T12:33:57.560Z,1013.04
2016-12-04T12:34:20.281Z,1013.19
2016-12-04T12:34:42.055Z,1012.88
2016-12-04T12:35:03.776Z,1012.93
2016-12-04T12:35:25.507Z,1013.22
2016-12-04T12:35:47.250Z,1013.28
2016-12-04T12:36:08.972Z,1013.26
2016-12-04T12:36:35.484Z,1012.98
2016-12-04T12:36:58.229Z,1013.09
2016-12-04T12:37:19.944Z,1013.07
2016-12-04T12:38:12.917Z,1013.12
2016-12-04T12:38:34.643Z,1013.22
2016-12-04T12:39:00.952Z,1012.81
2016-12-04T12:40:02.466Z,1012.99
2016-12-04T12:40:53.543Z,1013.21
2016-12-04T12:41:20.772Z,1013.33
2016-12-04T12:42:11.624Z,1013.41
2016-12-04T12:42:33.360Z,1013.08
2016-12-04T12:42:55.110Z,1013.03
2016-12-04T12:43:16.907Z,1013.06
2016-12-04T12:43:41.308Z,1013.17
2016-12-04T12:44:03.034Z,1012.93
2016-12-04T12:44:32.186Z,1013.27
2016-12-04T12:45:01.523Z,1013.16
2016-12-04T12:45:23.244Z,1013.22
2016-12-04T12:46:11.276Z,1012.80
2016-12-04T12:46:33.000Z,1012.91
2016-12-04T12:46:55.712Z,1012.85
2016-12-04T12:47:43.933Z,1012.80
2016-12-04T12:48:10.424Z,1012.89
2016-12-04T12:49:04.412Z,1013.63
2016-12-04T12:49:26.213Z,1012.99
2016-12-04T12:49:50.934Z,1013.07
2016-12-04T12:50:12.670Z,1013.21
2016-12-04T12:50:43.938Z,1013.57
2016-12-04T12:51:10.430Z,1012.85
2016-12-04T12:51:34.793Z,1013.21
2016-12-04T12:51:56.522Z,1013.03
2016-12-04T12:52:49.539Z,1012.87
2016-12-04T12:53:11.264Z,1012.92
2016-12-04T12:54:11.782Z,1012.99
2016-12-04T12:55:04.788Z,1012.91
2016-12-04T12:55:26.516Z,1013.12
2016-12-04T12:55:50.241Z,1012.79
2016-12-04T12:56:43.223Z,1013.35
2016-12-04T12:57:05.966Z,1012.96
2016-12-04T12:57:40.867Z,1012.61
2016-12-04T12:58:06.179Z,1013.10
2016-12-04T12:58:33.735Z,1012.76
2016-12-04T12:59:00.234Z,1013.40
2016-12-04T12:59:21.971Z,1012.83
2016-12-04T12:59:48.296Z,1013.09
2016-12-04T13:00:14.786Z,1013.12
2016-12-04T13:01:07.781Z,1013.13
2016-12-04T13:01:35.294Z,1012.98
2016-12-04T13:01:59.874Z,1012.84
2016-12-04T13:02:31.152Z,1013.05
2016-12-04T13:02:52.877Z,1013.08
2016-12-04T13:03:14.647Z,1012.99
2016-12-04T13:03:36.385Z,1013.21
2016-12-04T13:04:10.186Z,1013.15
2016-12-04T13:04:31.915Z,1012.91
2016-12-04T13:05:04.172Z,1013.06
2016-12-04T13:05:35.433Z,1013.10
2016-12-04T13:06:01.931Z,1013.29
2016-12-04T13:06:24.692Z,1012.93
2016-12-04T13:06:54.375Z,1012.51
2016-12-04T13:07:32.769Z,1012.93
2016-12-04T13:08:34.187Z,1012.93
2016-12-04T13:09:00.835Z,1013.55
2016-12-04T13:09:24.578Z,1013.31
2016-12-04T13:09:58.814Z,1013.06
2016-12-04T13:10:20.557Z,1012.90
2016-12-04T13:10:42.283Z,1012.91
2016-12-04T13:11:04.007Z,1012.85
2016-12-04T13:11:35.263Z,1013.50
2016-12-04T13:11:59.012Z,1013.15
2016-12-04T13:12:25.518Z,1013.26
2016-12-04T13:12:55.724Z,1013.25
2016-12-04T13:13:18.461Z,1013.12
2016-12-04T13:13:44.971Z,1013.15